createdAt,value
2024-02-08T00:01:11.658Z,99652.59
2024-02-08T00:03:40.716Z,99659.50
2024-02-08T00:06:08.983Z,99662.97
2024-02-08T00:08:38.329Z,99663.81
2024-02-08T00:11:08.112Z,99662.94
2024-02-08T00:13:38.454Z,99668.13
2024-02-08T00:16:12.813Z,99668.16
2024-02-08T00:18:41.572Z,99674.19
2024-02-08T00:21:10.862Z,99675.91
2024-02-08T00:23:39.430Z,99682.00
2024-02-08T00:26:07.572Z,99679.38
2024-02-08T00:28:35.757Z,99688.88
2024-02-08T00:31:07.712Z,99688.88
2024-02-08T00:33:39.994Z,99699.25
2024-02-08T00:36:12.865Z,99704.47
2024-02-08T00:38:41.352Z,99706.16
2024-02-08T00:41:10.605Z,99704.44
2024-02-08T00:43:40.345Z,99708.75
2024-02-08T00:46:08.529Z,99709.63
2024-02-08T00:48:38.035Z,99714.81
2024-02-08T00:51:08.361Z,99713.94
2024-02-08T00:53:36.520Z,99706.13
2024-02-08T00:56:04.950Z,99717.41
2024-02-08T00:58:34.493Z,99719.13
2024-02-08T01:01:05.316Z,99727.78
2024-02-08T01:03:34.726Z,99724.31
2024-02-08T01:06:06.175Z,99730.34
2024-02-08T01:08:34.972Z,99728.59
2024-02-08T01:11:03.198Z,99732.94
2024-02-08T01:13:33.117Z,99733.78
2024-02-08T01:16:01.490Z,99741.59
2024-02-08T01:18:29.986Z,99741.59
2024-02-08T01:20:58.098Z,99742.44
2024-02-08T01:23:29.407Z,99746.75
2024-02-08T01:25:57.626Z,99745.88
2024-02-08T01:28:26.677Z,99749.34
2024-02-08T01:30:54.914Z,99764.03
2024-02-08T01:33:22.946Z,99757.97
2024-02-08T01:35:53.565Z,99755.41
2024-02-08T01:38:22.752Z,99761.44
2024-02-08T01:40:52.293Z,99764.88
2024-02-08T01:43:20.549Z,99770.94
2024-02-08T01:45:50.829Z,99776.16
2024-02-08T01:48:19.697Z,99780.47
2024-02-08T01:50:52.397Z,99776.09
2024-02-08T01:53:29.385Z,99796.00
2024-02-08T01:56:02.441Z,99799.44
2024-02-08T01:58:33.344Z,99790.78
2024-02-08T02:01:14.887Z,99806.38
2024-02-08T02:03:43.207Z,99808.94
2024-02-08T02:06:15.813Z,99805.44
2024-02-08T02:08:54.755Z,99817.56
2024-02-08T02:11:31.698Z,99818.44
2024-02-08T02:14:00.803Z,99816.69
2024-02-08T02:16:29.534Z,99823.59
2024-02-08T02:18:58.459Z,99823.56
2024-02-08T02:21:28.536Z,99816.66
2024-02-08T02:23:58.575Z,99817.53
2024-02-08T02:26:27.789Z,99831.34
2024-02-08T02:28:57.070Z,99829.59
2024-02-08T02:31:28.519Z,99836.50
2024-02-08T02:33:58.727Z,99840.81
2024-02-08T02:36:28.599Z,99838.22
2024-02-08T02:38:57.880Z,99837.31
2024-02-08T02:41:29.216Z,99839.88
2024-02-08T02:43:57.501Z,99842.50
2024-02-08T02:46:25.768Z,99843.31
2024-02-08T02:48:54.021Z,99850.22
2024-02-08T02:51:28.279Z,99854.56
2024-02-08T02:54:00.157Z,99848.44
2024-02-08T02:56:33.235Z,99847.56
2024-02-08T02:59:05.030Z,99850.16
2024-02-08T03:01:40.264Z,99854.44
2024-02-08T03:04:12.242Z,99859.63
2024-02-08T03:06:44.428Z,99863.09
2024-02-08T03:09:17.478Z,99863.06
2024-02-08T03:11:46.323Z,99856.13
2024-02-08T03:14:16.672Z,99863.88
2024-02-08T03:16:47.166Z,99871.66
2024-02-08T03:19:17.749Z,99871.63
2024-02-08T03:21:47.006Z,99867.28
2024-02-08T03:24:16.563Z,99878.50
2024-02-08T03:26:48.744Z,99878.50
2024-02-08T03:29:18.816Z,99881.09
2024-02-08T03:31:49.302Z,99883.69
2024-02-08T03:34:21.463Z,99886.25
2024-02-08T03:36:52.458Z,99892.31
2024-02-08T03:39:27.629Z,99890.56
2024-02-08T03:42:01.098Z,99892.25
2024-02-08T03:44:32.556Z,99897.44
2024-02-08T03:47:06.389Z,99897.44
2024-02-08T03:49:35.218Z,99911.28
2024-02-08T03:52:03.428Z,99900.88
2024-02-08T03:54:34.369Z,99906.06
2024-02-08T03:57:07.205Z,99913.81
2024-02-08T03:59:36.071Z,99910.34
2024-02-08T04:02:06.724Z,99905.13
2024-02-08T04:04:51.139Z,99911.19
2024-02-08T04:07:23.618Z,99911.19
2024-02-08T04:09:57.974Z,99911.19
2024-02-08T04:12:44.542Z,99913.78
2024-02-08T04:15:33.872Z,99919.81
2024-02-08T04:18:20.300Z,99922.41
2024-02-08T04:21:06.004Z,99921.53
2024-02-08T04:23:52.246Z,99930.19
2024-02-08T04:26:39.000Z,99928.44
2024-02-08T04:29:25.447Z,99928.44
2024-02-08T04:32:11.300Z,99930.13
2024-02-08T04:34:58.822Z,99936.19
2024-02-08T04:37:44.588Z,99928.41
2024-02-08T04:40:36.307Z,99941.34
2024-02-08T04:43:23.925Z,99942.19
2024-02-08T04:46:09.478Z,99929.00
2024-02-08T04:48:56.826Z,99947.59
2024-02-08T04:51:44.263Z,99951.34
2024-02-08T04:54:12.493Z,99950.00
2024-02-08T04:56:40.789Z,99959.91
2024-02-08T04:59:21.619Z,99963.75
2024-02-08T05:01:54.536Z,99973.56
2024-02-08T05:04:23.361Z,99981.72
2024-02-08T05:06:52.409Z,99989.91
2024-02-08T05:09:21.607Z,99998.06
2024-02-08T05:11:51.275Z,99982.44
2024-02-08T05:14:24.108Z,99996.59
2024-02-08T05:16:56.134Z,99993.41
2024-02-08T05:19:27.370Z,99995.38
2024-02-08T05:22:01.006Z,99992.09
2024-02-08T05:24:32.402Z,100001.88
2024-02-08T05:27:01.361Z,99995.22
2024-02-08T05:29:33.340Z,99993.63
2024-02-08T05:32:02.716Z,99992.03
2024-02-08T05:34:31.343Z,100004.31
2024-02-08T05:37:03.156Z,100010.47
2024-02-08T05:39:32.791Z,100014.94
2024-02-08T05:42:02.003Z,100007.25
2024-02-08T05:44:56.673Z,100014.25
2024-02-08T05:47:27.640Z,100018.72
2024-02-08T05:49:57.418Z,100021.38
2024-02-08T05:52:33.767Z,100024.06
2024-02-08T05:55:12.413Z,100025.88
2024-02-08T05:58:00.284Z,100033.72
2024-02-08T06:00:37.523Z,100027.78
2024-02-08T06:03:07.183Z,100036.53
2024-02-08T06:05:37.463Z,100036.59
2024-02-08T06:08:26.393Z,100045.28
2024-02-08T06:10:54.832Z,100045.34
2024-02-08T06:13:27.635Z,100045.41
2024-02-08T06:16:09.592Z,100056.72
2024-02-08T06:18:39.334Z,100057.69
2024-02-08T06:21:15.050Z,100060.41
2024-02-08T06:23:46.599Z,100057.13
2024-02-08T06:26:29.391Z,100057.28
2024-02-08T06:29:06.831Z,100060.09
2024-02-08T06:31:42.603Z,100063.72
2024-02-08T06:34:29.367Z,100076.00
2024-02-08T06:37:17.751Z,100070.91
2024-02-08T06:39:57.472Z,100073.59
2024-02-08T06:42:48.576Z,100071.09
2024-02-08T06:45:46.236Z,100067.81
2024-02-08T06:48:43.656Z,100070.63
2024-02-08T06:51:29.331Z,100076.91
2024-02-08T06:54:14.799Z,100077.97
2024-02-08T06:57:00.279Z,100095.50
2024-02-08T06:59:48.469Z,100099.16
2024-02-08T07:02:34.308Z,100103.69
2024-02-08T07:05:21.434Z,100104.75
2024-02-08T07:08:13.210Z,100111.00
2024-02-08T07:10:59.097Z,100116.38
2024-02-08T07:13:44.664Z,100114.78
2024-02-08T07:16:31.268Z,100120.16
2024-02-08T07:19:17.243Z,100123.78
2024-02-08T07:22:04.684Z,100123.00
2024-02-08T07:24:50.157Z,100131.78
2024-02-08T07:27:35.616Z,100131.03
2024-02-08T07:30:20.878Z,100129.34
2024-02-08T07:33:06.624Z,100136.34
2024-02-08T07:35:53.260Z,100139.91
2024-02-08T07:38:43.781Z,100144.31
2024-02-08T07:41:13.648Z,100146.94
2024-02-08T07:43:45.248Z,100153.06
2024-02-08T07:46:18.057Z,100150.50
2024-02-08T07:48:46.772Z,100159.19
2024-02-08T07:51:17.510Z,100154.84
2024-02-08T07:53:53.275Z,100161.81
2024-02-08T07:56:38.741Z,100166.16
2024-02-08T07:59:17.131Z,100154.00
2024-02-08T08:01:51.487Z,100163.53
2024-02-08T08:04:34.684Z,100170.47
2024-02-08T08:07:03.298Z,100173.06
2024-02-08T08:09:37.718Z,100178.25
2024-02-08T08:12:07.729Z,100170.38
2024-02-08T08:14:57.996Z,100176.44
2024-02-08T08:17:42.107Z,100183.38
2024-02-08T08:20:38.529Z,100185.09
2024-02-08T08:23:26.883Z,100191.09
2024-02-08T08:26:23.747Z,100186.69
2024-02-08T08:28:54.111Z,100191.88
2024-02-08T08:31:37.427Z,100195.28
2024-02-08T08:34:24.000Z,100190.88
2024-02-08T08:37:00.015Z,100183.81
2024-02-08T08:39:46.368Z,100194.19
2024-02-08T08:42:19.176Z,100195.88
2024-02-08T08:44:52.989Z,100199.34
2024-02-08T08:47:25.906Z,100205.41
2024-02-08T08:49:54.756Z,100203.56
2024-02-08T08:52:25.948Z,100193.94
2024-02-08T08:55:12.736Z,100203.50
2024-02-08T08:57:42.428Z,100210.44
2024-02-08T09:00:12.784Z,100215.63
2024-02-08T09:02:43.713Z,100209.50
2024-02-08T09:05:19.192Z,100207.69
2024-02-08T09:07:48.726Z,100212.88
2024-02-08T09:10:19.021Z,100214.56
2024-02-08T09:12:59.856Z,100217.13
2024-02-08T09:15:42.381Z,100217.09
2024-02-08T09:18:11.354Z,100224.06
2024-02-08T09:20:39.824Z,100225.78
2024-02-08T09:23:15.509Z,100231.91
2024-02-08T09:25:47.155Z,100231.88
2024-02-08T09:28:28.669Z,100225.75
2024-02-08T09:30:59.401Z,100223.13
2024-02-08T09:33:45.586Z,100223.13
2024-02-08T09:36:16.069Z,100224.88
2024-02-08T09:38:47.116Z,100218.78
2024-02-08T09:41:25.699Z,100214.38
2024-02-08T09:43:59.308Z,100217.88
2024-02-08T09:46:47.317Z,100222.25
2024-02-08T09:49:18.570Z,100219.66
2024-02-08T09:51:54.697Z,100222.31
2024-02-08T09:54:30.432Z,100220.56
2024-02-08T09:57:04.013Z,100231.94
2024-02-08T09:59:53.338Z,100229.31
2024-02-08T10:02:34.178Z,100227.56
2024-02-08T10:05:21.131Z,100228.47
2024-02-08T10:08:06.920Z,100231.13
2024-02-08T10:10:45.499Z,100235.53
2024-02-08T10:13:28.835Z,100236.41
2024-02-08T10:16:13.898Z,100241.72
2024-02-08T10:18:43.300Z,100249.59
2024-02-08T10:21:14.917Z,100251.38
2024-02-08T10:23:49.914Z,100254.94
2024-02-08T10:26:28.742Z,100242.75
2024-02-08T10:28:56.724Z,100247.13
2024-02-08T10:31:26.868Z,100248.94
2024-02-08T10:34:11.190Z,100257.72
2024-02-08T10:36:46.340Z,100251.66
2024-02-08T10:39:26.693Z,100259.56
2024-02-08T10:42:02.973Z,100262.22
2024-02-08T10:44:34.930Z,100267.47
2024-02-08T10:47:09.249Z,100257.94
2024-02-08T10:49:46.534Z,100265.78
2024-02-08T10:52:18.028Z,100268.44
2024-02-08T10:54:53.968Z,100276.34
2024-02-08T10:57:58.506Z,100271.97
2024-02-08T11:00:45.069Z,100279.00
2024-02-08T11:03:29.596Z,100279.03
2024-02-08T11:06:04.802Z,100283.41
2024-02-08T11:08:51.445Z,100284.31
2024-02-08T11:11:22.478Z,100284.34
2024-02-08T11:13:55.114Z,100285.22
2024-02-08T11:16:29.268Z,100298.31
2024-02-08T11:19:01.904Z,100309.69
2024-02-08T11:21:45.265Z,100301.00
2024-02-08T11:24:29.375Z,100301.84
2024-02-08T11:27:03.742Z,100302.75
2024-02-08T11:29:46.778Z,100302.78
2024-02-08T11:32:18.446Z,100296.69
2024-02-08T11:34:56.056Z,100298.41
2024-02-08T11:37:32.238Z,100305.41
2024-02-08T11:40:03.247Z,100301.94
2024-02-08T11:42:38.540Z,100307.19
2024-02-08T11:45:11.240Z,100308.94
2024-02-08T11:47:43.357Z,100310.66
2024-02-08T11:50:24.635Z,100315.91
2024-02-08T11:53:00.547Z,100319.44
2024-02-08T11:55:33.672Z,100317.66
2024-02-08T11:58:07.230Z,100319.41
2024-02-08T12:00:46.792Z,100329.03
2024-02-08T12:03:19.096Z,100322.91
2024-02-08T12:05:57.126Z,100329.03
2024-02-08T12:08:36.760Z,100329.00
2024-02-08T12:11:09.406Z,100331.66
2024-02-08T12:13:41.393Z,100337.72
2024-02-08T12:16:12.661Z,100332.50
2024-02-08T12:18:41.668Z,100337.72
2024-02-08T12:21:19.004Z,100342.09
2024-02-08T12:23:54.461Z,100332.50
2024-02-08T12:26:26.497Z,100346.44
2024-02-08T12:28:58.294Z,100351.66
2024-02-08T12:31:31.088Z,100336.84
2024-02-08T12:34:04.897Z,100350.75
2024-02-08T12:36:36.652Z,100348.16
2024-02-08T12:39:19.106Z,100341.19
2024-02-08T12:41:50.556Z,100340.31
2024-02-08T12:44:22.099Z,100339.44
2024-02-08T12:46:56.166Z,100338.59
2024-02-08T12:49:26.341Z,100345.53
2024-02-08T12:52:00.754Z,100345.50
2024-02-08T12:54:29.752Z,100345.53
2024-02-08T12:57:09.283Z,100344.63
2024-02-08T12:59:38.573Z,100357.69
2024-02-08T13:02:11.339Z,100350.72
2024-02-08T13:04:45.665Z,100352.47
2024-02-08T13:07:19.204Z,100349.84
2024-02-08T13:09:48.836Z,100349.81
2024-02-08T13:12:20.436Z,100355.06
2024-02-08T13:15:04.094Z,100359.41
2024-02-08T13:17:35.371Z,100355.91
2024-02-08T13:20:13.815Z,100349.81
2024-02-08T13:22:46.979Z,100348.94
2024-02-08T13:25:17.568Z,100352.38
2024-02-08T13:27:47.301Z,100358.47
2024-02-08T13:30:18.783Z,100355.00
2024-02-08T13:32:50.765Z,100360.19
2024-02-08T13:35:20.634Z,100359.31
2024-02-08T13:37:54.249Z,100354.09
2024-02-08T13:40:24.166Z,100347.97
2024-02-08T13:42:57.348Z,100356.69
2024-02-08T13:45:29.421Z,100362.78
2024-02-08T13:48:00.100Z,100349.69
2024-02-08T13:50:32.778Z,100357.53
2024-02-08T13:53:05.800Z,100358.38
2024-02-08T13:58:08.533Z,100354.00
2024-02-08T14:00:37.634Z,100355.75
2024-02-08T14:03:09.511Z,100352.22
2024-02-08T14:05:40.940Z,100355.69
2024-02-08T14:08:18.715Z,100353.09
2024-02-08T14:10:48.755Z,100355.66
2024-02-08T14:13:30.605Z,100350.44
2024-02-08T14:16:02.235Z,100351.28
2024-02-08T14:18:34.317Z,100357.34
2024-02-08T14:21:04.585Z,100349.50
2024-02-08T14:23:39.294Z,100356.44
2024-02-08T14:26:32.738Z,100366.00
2024-02-08T14:29:05.794Z,100363.34
2024-02-08T14:31:38.915Z,100361.59
2024-02-08T14:34:10.938Z,100369.41
2024-02-08T14:36:48.769Z,100374.59
2024-02-08T14:39:34.232Z,100375.44
2024-02-08T14:42:03.131Z,100390.22
2024-02-08T14:44:42.362Z,100391.06
2024-02-08T14:47:16.861Z,100386.66
2024-02-08T14:49:57.981Z,100397.09
2024-02-08T14:52:30.322Z,100400.53
2024-02-08T14:55:11.760Z,100413.53
2024-02-08T14:57:43.404Z,100402.22
2024-02-08T15:00:29.977Z,100410.03
2024-02-08T15:03:04.310Z,100404.81
2024-02-08T15:05:49.260Z,100413.47
2024-02-08T15:08:47.277Z,100412.56
2024-02-08T15:11:39.916Z,100415.09
2024-02-08T15:14:08.482Z,100410.78
2024-02-08T15:16:38.529Z,100412.50
2024-02-08T15:19:07.827Z,100415.09
2024-02-08T15:21:37.661Z,100414.19
2024-02-08T15:24:21.400Z,100419.38
2024-02-08T15:27:05.817Z,100415.88
2024-02-08T15:29:44.007Z,100426.28
2024-02-08T15:32:19.030Z,100425.38
2024-02-08T15:35:06.352Z,100414.88
2024-02-08T15:37:43.138Z,100427.09
2024-02-08T15:40:14.308Z,100433.16
2024-02-08T15:42:45.032Z,100442.69
2024-02-08T15:45:14.756Z,100434.00
2024-02-08T15:47:59.216Z,100433.94
2024-02-08T15:50:34.187Z,100436.53
2024-02-08T15:53:10.407Z,100443.44
2024-02-08T15:55:44.065Z,100439.97
2024-02-08T15:58:29.393Z,100442.53
2024-02-08T16:01:17.306Z,100453.81
2024-02-08T16:03:56.742Z,100458.97
2024-02-08T16:06:45.976Z,100457.22
2024-02-08T16:09:27.436Z,100456.28
2024-02-08T16:12:01.609Z,100464.13
2024-02-08T16:14:43.437Z,100468.44
2024-02-08T16:17:38.634Z,100469.22
2024-02-08T16:20:24.650Z,100478.78
2024-02-08T16:23:04.057Z,100481.38
2024-02-08T16:25:45.978Z,100470.94
2024-02-08T16:28:19.323Z,100470.97
2024-02-08T16:31:11.810Z,100468.31
2024-02-08T16:33:50.328Z,100463.94
2024-02-08T16:36:45.717Z,100469.13
2024-02-08T16:39:34.712Z,100477.81
2024-02-08T16:42:03.147Z,100469.09
2024-02-08T16:44:36.432Z,100474.25
2024-02-08T16:47:23.940Z,100480.31
2024-02-08T16:49:52.053Z,100481.19
2024-02-08T16:52:23.324Z,100468.97
2024-02-08T16:55:01.389Z,100478.53
2024-02-08T16:57:33.252Z,100476.78
2024-02-08T17:00:22.589Z,100472.47
2024-02-08T17:03:05.491Z,100472.41
2024-02-08T17:05:50.725Z,100479.38
2024-02-08T17:08:22.129Z,100481.06
2024-02-08T17:10:57.247Z,100479.31
2024-02-08T17:13:38.414Z,100477.59
2024-02-08T17:16:26.437Z,100483.63
2024-02-08T17:19:23.327Z,100483.59
2024-02-08T17:22:09.550Z,100483.63
2024-02-08T17:24:47.788Z,100477.53
2024-02-08T17:27:39.187Z,100484.44
2024-02-08T17:30:18.198Z,100473.16
2024-02-08T17:32:46.661Z,100488.75
2024-02-08T17:35:17.689Z,100491.34
2024-02-08T17:37:49.900Z,100487.03
2024-02-08T17:40:21.491Z,100489.59
2024-02-08T17:42:51.318Z,100493.91
2024-02-08T17:45:21.543Z,100497.38
2024-02-08T17:47:50.681Z,100501.72
2024-02-08T17:50:31.049Z,100499.09
2024-02-08T17:53:01.048Z,100510.38
2024-02-08T17:55:37.494Z,100500.84
2024-02-08T17:58:14.125Z,100506.88
2024-02-08T18:00:49.629Z,100504.22
2024-02-08T18:03:27.127Z,100505.94
2024-02-08T18:05:58.247Z,100516.38
2024-02-08T18:08:27.302Z,100498.91
2024-02-08T18:10:55.771Z,100510.28
2024-02-08T18:13:27.631Z,100509.41
2024-02-08T18:15:58.702Z,100512.84
2024-02-08T18:18:27.452Z,100510.22
2024-02-08T18:20:59.518Z,100504.91
2024-02-08T18:23:34.132Z,100499.03
2024-02-08T18:26:05.242Z,100513.81
2024-02-08T18:28:33.877Z,100515.63
2024-02-08T18:31:07.268Z,100514.78
2024-02-08T18:33:36.555Z,100510.59
2024-02-08T18:36:09.301Z,100503.13
2024-02-08T18:38:39.525Z,100507.81
2024-02-08T18:41:08.380Z,100521.50
2024-02-08T18:43:36.672Z,100519.22
2024-02-08T18:46:07.385Z,100526.44
2024-02-08T18:48:42.383Z,100527.66
2024-02-08T18:51:17.191Z,100529.69
2024-02-08T18:53:46.285Z,100524.84
2024-02-08T18:56:20.503Z,100532.00
2024-02-08T18:58:53.412Z,100540.00
2024-02-08T19:01:26.539Z,100541.94
2024-02-08T19:03:56.004Z,100533.44
2024-02-08T19:06:27.705Z,100542.25
2024-02-08T19:08:56.807Z,100538.03
2024-02-08T19:11:25.031Z,100547.69
2024-02-08T19:13:53.663Z,100543.47
2024-02-08T19:16:29.155Z,100553.09
2024-02-08T19:19:02.320Z,100552.28
2024-02-08T19:21:39.130Z,100536.69
2024-02-08T19:24:08.728Z,100543.78
2024-02-08T19:26:37.152Z,100535.19
2024-02-08T19:29:07.579Z,100541.31
2024-02-08T19:31:43.360Z,100543.09
2024-02-08T19:34:19.170Z,100537.91
2024-02-08T19:36:54.297Z,100549.22
2024-02-08T19:39:40.568Z,100545.81
2024-02-08T19:42:19.702Z,100547.63
2024-02-08T19:44:54.503Z,100540.66
2024-02-08T19:47:28.446Z,100543.34
2024-02-08T19:50:05.042Z,100548.56
2024-02-08T19:52:41.671Z,100546.81
2024-02-08T19:55:22.849Z,100548.59
2024-02-08T19:57:54.402Z,100546.00
2024-02-08T20:00:29.912Z,100557.25
2024-02-08T20:03:01.440Z,100556.41
2024-02-08T20:05:36.600Z,100558.09
2024-02-08T20:08:11.329Z,100556.38
2024-02-08T20:10:41.908Z,100559.81
2024-02-08T20:13:16.192Z,100552.88
2024-02-08T20:15:45.387Z,100549.34
2024-02-08T20:18:18.869Z,100550.22
2024-02-08T20:20:48.988Z,100551.97
2024-02-08T20:23:23.353Z,100556.28
2024-02-08T20:25:55.742Z,100558.00
2024-02-08T20:28:24.828Z,100549.28
2024-02-08T20:30:55.612Z,100555.38
2024-02-08T20:33:24.562Z,100560.47
2024-02-08T20:35:56.982Z,100563.91
2024-02-08T20:38:28.193Z,100562.19
2024-02-08T20:40:57.412Z,100556.09
2024-02-08T20:43:28.080Z,100567.34
2024-02-08T20:45:58.669Z,100559.53
2024-02-08T20:48:27.025Z,100566.41
2024-02-08T20:50:56.817Z,100563.75
2024-02-08T20:53:28.456Z,100571.50
2024-02-08T20:55:57.820Z,100572.34
2024-02-08T20:58:26.235Z,100566.25
2024-02-08T21:00:56.529Z,100570.47
2024-02-08T21:03:28.094Z,100575.69
2024-02-08T21:05:59.520Z,100570.47
2024-02-08T21:08:30.456Z,100576.50
2024-02-08T21:11:00.110Z,100579.06
2024-02-08T21:13:33.405Z,100563.38
2024-02-08T21:16:01.842Z,100576.38
2024-02-08T21:18:30.727Z,100578.94
2024-02-08T21:20:59.992Z,100578.03
2024-02-08T21:23:28.258Z,100573.56
2024-02-08T21:26:23.144Z,100571.88
2024-02-08T21:28:55.663Z,100577.03
2024-02-08T21:34:25.833Z,100578.59
2024-02-08T21:36:55.051Z,100582.06
2024-02-08T21:39:33.147Z,100588.09
2024-02-08T21:42:07.528Z,100585.41
2024-02-08T21:44:39.681Z,100585.41
2024-02-08T21:47:08.119Z,100590.56
2024-02-08T21:49:36.378Z,100588.78
2024-02-08T21:52:08.806Z,100580.91
2024-02-08T21:54:39.314Z,100588.69
2024-02-08T21:57:09.295Z,100588.69
2024-02-08T21:59:38.036Z,100594.72
2024-02-08T22:02:09.428Z,100572.06
2024-02-08T22:04:39.078Z,100590.31
2024-02-08T22:07:07.900Z,100598.09
2024-02-08T22:09:36.864Z,100590.28
2024-02-08T22:12:06.207Z,100591.06
2024-02-08T22:14:40.612Z,100593.66
2024-02-08T22:17:10.796Z,100583.09
2024-02-08T22:19:44.680Z,100598.75
2024-02-08T22:22:15.160Z,100605.66
2024-02-08T22:24:43.692Z,100608.22
2024-02-08T22:27:12.206Z,100602.94
2024-02-08T22:29:42.338Z,100604.69
2024-02-08T22:32:12.730Z,100604.69
2024-02-08T22:34:42.791Z,100605.47
2024-02-08T22:37:11.781Z,100610.66
2024-02-08T22:39:39.931Z,100608.91
2024-02-08T22:42:08.308Z,100608.84
2024-02-08T22:44:39.334Z,100612.28
2024-02-08T22:47:08.980Z,100610.34
2024-02-08T22:49:37.915Z,100620.81
2024-02-08T22:52:07.230Z,100619.03
2024-02-08T22:54:35.474Z,100621.59
2024-02-08T22:57:04.910Z,100620.66
2024-02-08T22:59:33.056Z,100630.13
2024-02-08T23:02:08.200Z,100627.53
2024-02-08T23:04:39.134Z,100629.09
2024-02-08T23:07:08.961Z,100635.19
2024-02-08T23:09:37.359Z,100618.53
2024-02-08T23:12:07.096Z,100623.78
2024-02-08T23:14:35.232Z,100626.38
2024-02-08T23:17:04.595Z,100624.66
2024-02-08T23:19:34.065Z,100633.22
2024-02-08T23:22:07.198Z,100634.88
2024-02-08T23:24:41.988Z,100627.94
2024-02-08T23:27:11.097Z,100625.28
2024-02-08T23:29:39.250Z,100624.38
2024-02-08T23:32:09.975Z,100628.66
2024-02-08T23:34:41.882Z,100624.25
2024-02-08T23:37:13.026Z,100629.44
2024-02-08T23:39:41.414Z,100635.41
2024-02-08T23:42:09.746Z,100634.50
2024-02-08T23:44:39.672Z,100637.06
2024-02-08T23:47:08.224Z,100638.72
2024-02-08T23:49:36.341Z,100626.63
2024-02-08T23:52:04.790Z,100629.13
2024-02-08T23:54:34.327Z,100626.53
2024-02-08T23:57:05.819Z,100631.66
2024-02-08T23:59:34.817Z,100623.03
